»·PEaware :: N5954W KGCN-KPRC

N5954W :: KGCN-KPRC

FLIGHT INFORMATION

Flight Status: Arrived
Operator: Privately registered:
United States
More flights under this callsign
Pilot: Joshua M. (19482)
Aircraft: BEECH AIRCRAFT BARON
(BE58)
More flights by this aircraft type
Origin: KGCN Grand Canyon Natl Park
United States
Destination: KPRC Love
United States
More flights between these airports :: More routes between these airports
Route: GRAND4 BISOP V257 DRK
File this flight plan on PilotEdge
Remarks: Outdated NAV Default XPlane
Altitude:
(Current/Filed)
13,000ft
Speed:
(Current/Filed)
140kts
Departed: 22-Jul-18 03:12 PM
Arrived: 22-Jul-18 04:03 PM
Distance/Time
Traveled:
79nm/0:51
Distance/Time
To Go:
Arrived

Flight Plot

Page will automatically refresh every two minutes.

Flight plan parsing failed; only flown route is shown


Map Options




Map Legend


Flown Route
Filed Route
Departure Airport
Arrival Airport
Navaid (VOR, NDB)
Fix

Horizontal Profiles

Position Reports

Time Latitude Longitude Heading Altitude Ground
Speed
22-Jul-18 14:55 35.953575 -112.142824 40 6605ft 0kts
22-Jul-18 14:56 35.953575 -112.142824 40 6605ft 0kts
22-Jul-18 14:57 35.954078 -112.142320 37 6605ft 6kts
22-Jul-18 14:58 35.954912 -112.141517 41 6605ft 7kts
22-Jul-18 14:59 35.956530 -112.139642 39 6605ft 11kts
22-Jul-18 15:00 35.956937 -112.139187 44 6605ft 0kts
22-Jul-18 15:01 35.956937 -112.139187 44 6605ft 0kts
22-Jul-18 15:02 35.956937 -112.139187 44 6605ft 0kts
22-Jul-18 15:03 35.956937 -112.139187 44 6605ft 0kts
22-Jul-18 15:04 35.957314 -112.139604 308 6605ft 4kts
22-Jul-18 15:05 35.957319 -112.139612 308 6605ft 0kts
22-Jul-18 15:06 35.957319 -112.139612 308 6605ft 0kts
22-Jul-18 15:07 35.957319 -112.139612 308 6605ft 0kts
22-Jul-18 15:08 35.958106 -112.139081 41 6605ft 13kts
22-Jul-18 15:09 35.960857 -112.136223 3 6605ft 0kts
22-Jul-18 15:10 35.961076 -112.136328 326 6605ft 0kts
22-Jul-18 15:11 35.961084 -112.136335 326 6605ft 0kts
22-Jul-18 15:12 35.961144 -112.136386 324 6605ft 3kts
22-Jul-18 15:13 35.957554 -112.141421 222 6605ft 81kts
22-Jul-18 15:14 35.933368 -112.165188 219 6933ft 128kts
22-Jul-18 15:15 35.905026 -112.192873 214 7716ft 132kts
22-Jul-18 15:16 35.873531 -112.215958 212 8477ft 133kts
22-Jul-18 15:17 35.841618 -112.238845 212 9200ft 133kts
22-Jul-18 15:18 35.809713 -112.261668 211 9879ft 133kts
22-Jul-18 15:19 35.777797 -112.284478 211 10517ft 133kts
22-Jul-18 15:20 35.745816 -112.307309 211 11119ft 133kts
22-Jul-18 15:21 35.713733 -112.330198 211 11688ft 133kts
22-Jul-18 15:22 35.681764 -112.352983 211 12221ft 134kts
22-Jul-18 15:23 35.649682 -112.375830 211 12731ft 133kts
22-Jul-18 15:24 35.617076 -112.399063 211 13021ft 145kts
22-Jul-18 15:25 35.579715 -112.423406 189 13012ft 161kts
22-Jul-18 15:26 35.534766 -112.422175 186 13000ft 165kts
22-Jul-18 15:27 35.488757 -112.426157 186 12995ft 167kts
22-Jul-18 15:28 35.442344 -112.429633 185 12994ft 167kts
22-Jul-18 15:29 35.396232 -112.432763 185 12994ft 167kts
22-Jul-18 15:30 35.350775 -112.435858 185 12994ft 167kts
22-Jul-18 15:31 35.307269 -112.438910 185 12994ft 167kts
22-Jul-18 15:32 35.261153 -112.442100 185 12994ft 167kts
22-Jul-18 15:33 35.216288 -112.445178 185 13123ft 163kts
22-Jul-18 15:34 35.173906 -112.448078 185 13116ft 166kts
22-Jul-18 15:35 35.128408 -112.451170 185 13039ft 171kts
22-Jul-18 15:36 35.085068 -112.434536 131 12552ft 192kts
22-Jul-18 15:37 35.053695 -112.386493 131 12100ft 195kts
22-Jul-18 15:38 35.020853 -112.336403 131 11512ft 201kts
22-Jul-18 15:39 34.987646 -112.286605 131 10861ft 205kts
22-Jul-18 15:40 34.953845 -112.236844 131 10243ft 206kts
22-Jul-18 15:41 34.916099 -112.193374 175 9607ft 200kts
22-Jul-18 15:42 34.866568 -112.195906 215 8906ft 170kts
22-Jul-18 15:43 34.836014 -112.226240 222 8919ft 122kts
22-Jul-18 15:44 34.812065 -112.251505 222 8906ft 119kts
22-Jul-18 15:45 34.783402 -112.282284 222 8298ft 154kts
22-Jul-18 15:46 34.750843 -112.317433 222 7730ft 153kts
22-Jul-18 15:47 34.721004 -112.348702 222 6644ft 127kts
22-Jul-18 15:48 34.699457 -112.371666 222 6089ft 112kts
22-Jul-18 15:49 34.677041 -112.395535 221 5491ft 111kts
22-Jul-18 15:50 34.653592 -112.419193 220 5353ft 128kts
22-Jul-18 15:51 34.633011 -112.452827 289 5909ft 143kts
22-Jul-18 15:52 34.666617 -112.457265 339 6812ft 138kts
22-Jul-18 15:53 34.700440 -112.478674 330 7698ft 137kts
22-Jul-18 15:54 34.728575 -112.507621 305 8518ft 136kts
22-Jul-18 15:55 34.757444 -112.531428 23 9001ft 154kts
22-Jul-18 15:56 34.789582 -112.498703 41 8984ft 175kts
22-Jul-18 15:57 34.819653 -112.464901 58 8969ft 181kts
22-Jul-18 15:58 34.806968 -112.418208 121 8586ft 176kts
22-Jul-18 15:59 34.777309 -112.387613 178 8143ft 173kts
22-Jul-18 16:00 34.743248 -112.388368 181 7400ft 139kts
22-Jul-18 16:01 34.717540 -112.393615 191 6469ft 109kts
22-Jul-18 16:02 34.694210 -112.398711 191 5677ft 109kts
22-Jul-18 16:03 34.673818 -112.404877 203 5234ft 94kts
22-Jul-18 16:04 34.659312 -112.417453 221 5042ft 38kts
22-Jul-18 16:05 34.656727 -112.421037 238 5042ft 8kts
22-Jul-18 16:06 34.654703 -112.422236 216 5042ft 14kts
22-Jul-18 16:07 34.654012 -112.422883 171 5042ft 0kts
22-Jul-18 16:08 34.654012 -112.422883 171 5042ft 0kts
22-Jul-18 16:09 34.654012 -112.422883 171 5042ft 0kts
22-Jul-18 16:10 34.654012 -112.422883 171 5042ft 0kts
22-Jul-18 16:11 34.654012 -112.422883 171 5042ft 0kts
22-Jul-18 16:12 34.654012 -112.422883 171 5042ft 0kts
22-Jul-18 16:13 34.654001 -112.422882 175 5042ft 0kts
22-Jul-18 16:14 34.654001 -112.422882 175 5042ft 0kts
22-Jul-18 16:15 34.654001 -112.422882 175 5042ft 0kts
22-Jul-18 16:16 34.654001 -112.422882 175 5042ft 0kts
22-Jul-18 16:17 34.654001 -112.422882 175 5042ft 0kts
22-Jul-18 16:18 34.654001 -112.422882 175 5042ft 0kts

Navigation Log

Ident Type
Flight plan parsing failed, navigation log unavailable